createdAt,value
2022-08-07T00:00:29.767Z,100.00
2022-08-07T00:02:56.969Z,100.00
2022-08-07T00:05:24.929Z,100.00
2022-08-07T00:07:58.205Z,100.00
2022-08-07T00:10:30.496Z,100.00
2022-08-07T00:13:17.450Z,100.00
2022-08-07T00:15:52.152Z,100.00
2022-08-07T00:18:24.340Z,100.00
2022-08-07T00:21:01.838Z,100.00
2022-08-07T00:23:34.521Z,100.00
2022-08-07T00:26:13.167Z,100.00
2022-08-07T00:28:55.733Z,100.00
2022-08-07T00:31:37.148Z,100.00
2022-08-07T00:34:08.929Z,100.00
2022-08-07T00:36:38.602Z,100.00
2022-08-07T00:39:16.151Z,100.00
2022-08-07T00:42:02.384Z,100.00
2022-08-07T00:44:33.192Z,100.00
2022-08-07T00:47:06.562Z,100.00
2022-08-07T00:50:19.951Z,100.00
2022-08-07T00:52:29.677Z,100.00
2022-08-07T00:55:04.597Z,100.00
2022-08-07T00:57:37.466Z,100.00
2022-08-07T01:00:12.239Z,100.00
2022-08-07T01:02:40.283Z,100.00
2022-08-07T01:05:19.049Z,100.00
2022-08-07T01:07:46.497Z,100.00
2022-08-07T01:10:17.141Z,100.00
2022-08-07T01:12:54.136Z,100.00
2022-08-07T01:15:35.640Z,100.00
2022-08-07T01:18:16.922Z,100.00
2022-08-07T01:20:57.355Z,100.00
2022-08-07T01:23:38.073Z,100.00
2022-08-07T01:26:13.211Z,100.00
2022-08-07T01:28:48.343Z,100.00
2022-08-07T01:31:21.344Z,100.00
2022-08-07T01:33:55.588Z,100.00
2022-08-07T01:36:31.084Z,100.00
2022-08-07T01:39:10.059Z,100.00
2022-08-07T01:41:40.894Z,100.00
2022-08-07T01:44:29.624Z,100.00
2022-08-07T01:47:01.189Z,100.00
2022-08-07T01:49:42.388Z,100.00
2022-08-07T01:52:10.463Z,100.00
2022-08-07T01:54:41.612Z,100.00
2022-08-07T01:57:24.529Z,100.00
2022-08-07T01:59:57.739Z,100.00
2022-08-07T02:03:19.222Z,100.00
2022-08-07T02:05:48.645Z,100.00
2022-08-07T02:08:29.381Z,100.00
2022-08-07T02:10:59.523Z,100.00
2022-08-07T02:13:57.230Z,100.00
2022-08-07T02:16:28.710Z,100.00
2022-08-07T02:20:03.535Z,100.00
2022-08-07T02:21:58.853Z,100.00
2022-08-07T02:24:29.375Z,100.00
2022-08-07T02:27:02.644Z,100.00
2022-08-07T02:29:32.958Z,100.00
2022-08-07T02:32:05.443Z,100.00
2022-08-07T02:34:34.423Z,100.00
2022-08-07T02:37:08.208Z,100.00
2022-08-07T02:39:43.145Z,100.00
2022-08-07T02:42:31.112Z,100.00
2022-08-07T02:45:11.989Z,100.00
2022-08-07T02:47:49.887Z,100.00
2022-08-07T02:50:19.117Z,100.00
2022-08-07T02:52:49.292Z,100.00
2022-08-07T02:55:28.047Z,100.00
2022-08-07T02:58:12.503Z,100.00
2022-08-07T03:00:47.076Z,100.00
2022-08-07T03:03:22.638Z,100.00
2022-08-07T03:05:53.902Z,100.00
2022-08-07T03:08:29.191Z,100.00
2022-08-07T03:11:00.033Z,100.00
2022-08-07T03:13:38.992Z,100.00
2022-08-07T03:16:18.529Z,100.00
2022-08-07T03:18:52.177Z,100.00
2022-08-07T03:21:20.493Z,100.00
2022-08-07T03:24:19.761Z,100.00
2022-08-07T03:26:51.036Z,100.00
2022-08-07T03:29:28.403Z,100.00
2022-08-07T03:31:56.722Z,100.00
2022-08-07T03:34:27.373Z,100.00
2022-08-07T03:37:12.441Z,100.00
2022-08-07T03:39:59.070Z,100.00
2022-08-07T03:42:28.133Z,100.00
2022-08-07T03:44:58.113Z,100.00
2022-08-07T03:47:29.646Z,100.00
2022-08-07T03:50:19.639Z,100.00
2022-08-07T03:52:53.589Z,100.00
2022-08-07T03:55:22.132Z,100.00
2022-08-07T03:58:33.769Z,100.00
2022-08-07T04:00:46.265Z,100.00
2022-08-07T04:03:19.848Z,100.00
2022-08-07T04:05:50.329Z,100.00
2022-08-07T04:08:21.839Z,100.00
2022-08-07T04:10:54.115Z,100.00
2022-08-07T04:14:09.220Z,100.00
2022-08-07T04:16:32.403Z,100.00
2022-08-07T04:19:14.874Z,100.00
2022-08-07T04:22:05.464Z,100.00
2022-08-07T04:24:41.175Z,100.00
2022-08-07T04:27:20.278Z,100.00
2022-08-07T04:30:01.629Z,100.00
2022-08-07T04:32:38.121Z,100.00
2022-08-07T04:35:12.890Z,100.00
2022-08-07T04:38:02.741Z,100.00
2022-08-07T04:40:30.004Z,100.00
2022-08-07T04:43:02.189Z,100.00
2022-08-07T04:46:01.164Z,100.00
2022-08-07T04:48:39.899Z,100.00
2022-08-07T04:51:27.584Z,100.00
2022-08-07T04:54:06.943Z,100.00
2022-08-07T04:58:13.072Z,100.00
2022-08-07T05:00:11.603Z,100.00
2022-08-07T05:03:00.838Z,100.00
2022-08-07T05:05:54.241Z,100.00
2022-08-07T05:08:59.870Z,100.00
2022-08-07T05:11:58.610Z,100.00
2022-08-07T05:14:55.702Z,100.00
2022-08-07T05:17:50.968Z,100.00
2022-08-07T05:20:13.778Z,100.00
2022-08-07T05:22:43.219Z,100.00
2022-08-07T05:25:37.363Z,100.00
2022-08-07T05:28:16.942Z,100.00
2022-08-07T05:30:49.044Z,100.00
2022-08-07T05:33:18.075Z,100.00
2022-08-07T05:35:50.778Z,100.00
2022-08-07T05:38:58.200Z,100.00
2022-08-07T05:41:14.328Z,100.00
2022-08-07T05:44:01.128Z,100.00
2022-08-07T05:46:37.655Z,100.00
2022-08-07T05:49:11.710Z,100.00
2022-08-07T05:51:46.644Z,100.00
2022-08-07T05:54:30.845Z,100.00
2022-08-07T05:57:04.968Z,100.00
2022-08-07T05:59:47.341Z,100.00
2022-08-07T06:02:28.916Z,100.00
2022-08-07T06:05:03.804Z,100.00
2022-08-07T06:08:14.537Z,100.00
2022-08-07T06:10:21.914Z,100.00
2022-08-07T06:12:50.048Z,100.00
2022-08-07T06:15:20.334Z,100.00
2022-08-07T06:17:53.458Z,100.00
2022-08-07T06:20:25.612Z,100.00
2022-08-07T06:23:45.693Z,100.00
2022-08-07T06:26:00.444Z,100.00
2022-08-07T06:28:28.585Z,100.00
2022-08-07T06:30:58.188Z,100.00
2022-08-07T06:33:27.362Z,100.00
2022-08-07T06:36:13.066Z,100.00
2022-08-07T06:38:58.993Z,100.00
2022-08-07T06:42:01.585Z,100.00
2022-08-07T06:44:58.452Z,100.00
2022-08-07T06:47:26.886Z,100.00
2022-08-07T06:49:58.664Z,100.00
2022-08-07T06:52:37.216Z,100.00
2022-08-07T06:55:34.157Z,100.00
2022-08-07T06:58:10.399Z,100.00
2022-08-07T07:00:46.390Z,100.00
2022-08-07T07:03:17.034Z,100.00
2022-08-07T07:06:05.180Z,100.00
2022-08-07T07:08:34.655Z,100.00
2022-08-07T07:11:13.092Z,100.00
2022-08-07T07:13:58.061Z,100.00
2022-08-07T07:16:31.383Z,100.00
2022-08-07T07:19:19.023Z,100.00
2022-08-07T07:22:04.972Z,100.00
2022-08-07T07:24:43.017Z,100.00
2022-08-07T07:27:35.323Z,100.00
2022-08-07T07:30:09.757Z,100.00
2022-08-07T07:32:40.862Z,100.00
2022-08-07T07:35:11.728Z,100.00
2022-08-07T07:37:44.407Z,100.00
2022-08-07T07:40:18.408Z,100.00
2022-08-07T07:42:51.281Z,97.59
2022-08-07T07:46:38.296Z,99.55
2022-08-07T07:48:35.056Z,98.22
2022-08-07T07:51:07.974Z,88.09
2022-08-07T07:53:44.749Z,88.36
2022-08-07T07:56:30.255Z,94.54
2022-08-07T07:59:02.867Z,83.97
2022-08-07T08:02:02.468Z,84.33
2022-08-07T08:04:25.857Z,77.24
2022-08-07T08:06:55.193Z,74.65
2022-08-07T08:09:29.434Z,66.46
2022-08-07T08:12:01.959Z,73.46
2022-08-07T08:14:34.159Z,80.44
2022-08-07T08:17:56.211Z,69.57
2022-08-07T08:20:18.633Z,69.45
2022-08-07T08:23:08.348Z,70.87
2022-08-07T08:25:56.857Z,66.19
2022-08-07T08:28:38.679Z,67.10
2022-08-07T08:31:16.413Z,64.41
2022-08-07T08:33:57.995Z,64.67
2022-08-07T08:36:29.728Z,65.66
2022-08-07T08:38:57.575Z,61.02
2022-08-07T08:41:58.556Z,65.55
2022-08-07T08:44:36.257Z,59.26
2022-08-07T08:47:09.835Z,57.93
2022-08-07T08:49:46.440Z,55.44
2022-08-07T08:52:29.496Z,55.94
2022-08-07T08:55:21.235Z,61.14
2022-08-07T08:58:50.662Z,61.89
2022-08-07T09:01:43.808Z,62.75
2022-08-07T09:04:39.859Z,55.08
2022-08-07T09:07:23.150Z,48.12
2022-08-07T09:10:14.773Z,48.22
2022-08-07T09:13:06.985Z,46.04
2022-08-07T09:16:21.523Z,45.63
2022-08-07T09:19:00.439Z,46.85
2022-08-07T09:21:58.174Z,47.55
2022-08-07T09:24:55.163Z,45.03
2022-08-07T09:27:59.900Z,45.85
2022-08-07T09:30:29.637Z,48.37
2022-08-07T09:33:16.595Z,47.66
2022-08-07T09:36:09.655Z,44.76
2022-08-07T09:38:50.147Z,45.14
2022-08-07T09:41:58.669Z,43.64
2022-08-07T09:44:58.365Z,47.84
2022-08-07T09:47:59.012Z,47.82
2022-08-07T09:50:51.552Z,49.18
2022-08-07T09:53:23.277Z,50.29
2022-08-07T09:56:03.631Z,52.24
2022-08-07T09:58:50.943Z,56.64
2022-08-07T10:01:51.575Z,52.10
2022-08-07T10:04:39.520Z,56.64
2022-08-07T10:07:53.330Z,48.32
2022-08-07T10:11:17.101Z,45.64
2022-08-07T10:14:01.894Z,44.39
2022-08-07T10:17:17.070Z,44.48
2022-08-07T10:20:00.801Z,43.45
2022-08-07T10:22:33.905Z,42.00
2022-08-07T10:25:22.603Z,40.43
2022-08-07T10:28:30.924Z,41.81
2022-08-07T10:31:05.868Z,37.75
2022-08-07T10:34:05.951Z,38.91
2022-08-07T10:36:47.614Z,38.90
2022-08-07T10:39:42.244Z,39.49
2022-08-07T10:42:36.833Z,38.82
2022-08-07T10:45:10.753Z,39.33
2022-08-07T10:47:55.852Z,39.69
2022-08-07T10:50:34.058Z,39.65
2022-08-07T10:53:21.657Z,36.54
2022-08-07T10:56:04.930Z,41.33
2022-08-07T10:58:59.954Z,45.86
2022-08-07T11:02:05.458Z,49.96
2022-08-07T11:04:45.648Z,52.75
2022-08-07T11:07:24.762Z,48.12
2022-08-07T11:10:17.193Z,45.54
2022-08-07T11:13:02.176Z,44.48
2022-08-07T11:15:38.684Z,45.16
2022-08-07T11:18:18.238Z,44.40
2022-08-07T11:21:11.217Z,45.18
2022-08-07T11:23:45.368Z,41.71
2022-08-07T11:26:13.067Z,45.51
2022-08-07T11:28:42.805Z,48.43
2022-08-07T11:31:30.540Z,46.19
2022-08-07T11:34:12.708Z,38.31
2022-08-07T11:37:02.731Z,37.81
2022-08-07T11:40:00.061Z,39.89
2022-08-07T11:42:54.302Z,39.82
2022-08-07T11:45:53.799Z,40.24
2022-08-07T11:48:35.853Z,41.86
2022-08-07T11:51:40.649Z,45.27
2022-08-07T11:54:29.700Z,43.02
2022-08-07T11:57:15.677Z,44.30
2022-08-07T12:00:11.185Z,48.28
2022-08-07T12:02:55.269Z,57.40
2022-08-07T12:05:49.265Z,66.91
2022-08-07T12:08:31.850Z,66.15
2022-08-07T12:11:22.547Z,69.74
2022-08-07T12:13:55.583Z,79.54
2022-08-07T12:16:30.503Z,87.50
2022-08-07T12:19:06.165Z,81.57
2022-08-07T12:22:37.238Z,83.42
2022-08-07T12:26:03.466Z,81.75
2022-08-07T12:28:17.163Z,99.97
2022-08-07T12:31:06.329Z,80.92
2022-08-07T12:33:55.996Z,86.49
2022-08-07T12:36:32.918Z,100.00
2022-08-07T12:39:43.239Z,100.00
2022-08-07T12:41:55.489Z,100.00
2022-08-07T12:44:25.881Z,99.93
2022-08-07T12:46:52.550Z,88.14
2022-08-07T12:49:49.106Z,96.48
2022-08-07T12:52:33.983Z,100.00
2022-08-07T12:55:05.576Z,100.00
2022-08-07T12:58:00.646Z,100.00
2022-08-07T13:00:35.995Z,100.00
2022-08-07T13:03:23.045Z,100.00
2022-08-07T13:06:27.726Z,100.00
2022-08-07T13:09:12.698Z,100.00
2022-08-07T13:12:19.525Z,100.00
2022-08-07T13:15:03.671Z,100.00
2022-08-07T13:17:59.433Z,100.00
2022-08-07T13:20:41.053Z,100.00
2022-08-07T13:24:01.441Z,100.00
2022-08-07T13:26:31.539Z,100.00
2022-08-07T13:29:51.329Z,100.00
2022-08-07T13:32:32.539Z,94.83
2022-08-07T13:35:21.330Z,100.00
2022-08-07T13:38:02.564Z,100.00
2022-08-07T13:40:43.217Z,92.97
2022-08-07T13:43:13.207Z,73.91
2022-08-07T13:46:10.833Z,57.42
2022-08-07T13:48:43.920Z,51.37
2022-08-07T13:51:28.329Z,55.74
2022-08-07T13:54:16.644Z,62.24
2022-08-07T13:56:59.558Z,74.31
2022-08-07T13:59:32.734Z,79.11
2022-08-07T14:02:12.670Z,78.49
2022-08-07T14:04:54.605Z,85.41
2022-08-07T14:07:27.719Z,89.12
2022-08-07T14:10:01.262Z,93.06
2022-08-07T14:12:49.511Z,94.34
2022-08-07T14:15:35.946Z,83.70
2022-08-07T14:18:27.734Z,86.34
2022-08-07T14:21:08.170Z,65.22
2022-08-07T14:24:07.665Z,49.44
2022-08-07T14:26:51.162Z,40.47
2022-08-07T14:30:09.807Z,42.72
2022-08-07T14:32:15.176Z,39.65
2022-08-07T14:34:47.798Z,39.87
2022-08-07T14:37:18.373Z,50.12
2022-08-07T14:40:17.665Z,50.36
2022-08-07T14:43:01.218Z,55.26
2022-08-07T14:45:46.842Z,48.37
2022-08-07T14:48:21.301Z,49.28
2022-08-07T14:50:51.796Z,62.84
2022-08-07T14:54:08.590Z,84.54
2022-08-07T14:56:13.956Z,97.67
2022-08-07T14:58:51.173Z,100.00
2022-08-07T15:01:50.767Z,100.00
2022-08-07T15:04:17.264Z,100.00
2022-08-07T15:06:47.666Z,100.00
2022-08-07T15:09:59.743Z,78.26
2022-08-07T15:17:59.602Z,55.27
2022-08-07T15:20:55.925Z,64.39
2022-08-07T15:25:03.069Z,78.37
2022-08-07T15:26:20.663Z,62.04
2022-08-07T15:28:56.690Z,53.26
2022-08-07T15:32:00.639Z,47.27
2022-08-07T15:34:14.923Z,47.16
2022-08-07T15:37:04.028Z,43.69
2022-08-07T15:39:57.561Z,40.23
2022-08-07T15:42:47.752Z,50.51
2022-08-07T15:45:20.847Z,78.65
2022-08-07T15:48:06.692Z,98.02
2022-08-07T15:51:07.915Z,100.00
2022-08-07T15:53:52.646Z,100.00
2022-08-07T15:56:24.668Z,100.00
2022-08-07T15:58:58.357Z,100.00
2022-08-07T16:01:39.149Z,100.00
2022-08-07T16:04:15.225Z,100.00
2022-08-07T16:06:54.494Z,100.00
2022-08-07T16:09:42.409Z,100.00
2022-08-07T16:12:39.032Z,100.00
2022-08-07T16:15:55.003Z,100.00
2022-08-07T16:18:43.411Z,100.00
2022-08-07T16:21:53.484Z,100.00
2022-08-07T16:24:53.030Z,100.00
2022-08-07T16:27:40.253Z,100.00
2022-08-07T16:30:29.613Z,100.00
2022-08-07T16:34:02.518Z,100.00
2022-08-07T16:36:32.167Z,100.00
2022-08-07T16:39:40.504Z,100.00
2022-08-07T16:42:45.343Z,100.00
2022-08-07T16:46:47.506Z,100.00
2022-08-07T16:49:10.521Z,100.00
2022-08-07T16:52:51.349Z,100.00
2022-08-07T16:54:55.139Z,100.00
2022-08-07T16:58:02.644Z,100.00
2022-08-07T17:00:41.848Z,100.00
2022-08-07T17:03:58.591Z,100.00
2022-08-07T17:06:45.896Z,100.00
2022-08-07T17:10:08.506Z,100.00
2022-08-07T17:12:44.258Z,100.00
2022-08-07T17:15:15.785Z,100.00
2022-08-07T17:17:57.033Z,100.00
2022-08-07T17:20:33.599Z,100.00
2022-08-07T17:23:32.040Z,100.00
2022-08-07T17:26:23.363Z,100.00
2022-08-07T17:30:14.949Z,100.00
2022-08-07T17:32:30.686Z,100.00
2022-08-07T17:35:49.641Z,100.00
2022-08-07T17:38:33.215Z,100.00
2022-08-07T17:42:03.721Z,100.00
2022-08-07T17:44:14.154Z,100.00
2022-08-07T17:47:08.440Z,100.00
2022-08-07T17:50:16.418Z,100.00
2022-08-07T17:53:00.529Z,100.00
2022-08-07T17:56:01.026Z,100.00
2022-08-07T17:58:46.490Z,100.00
2022-08-07T18:01:36.551Z,100.00
2022-08-07T18:04:31.225Z,100.00
2022-08-07T18:07:22.636Z,100.00
2022-08-07T18:10:06.556Z,100.00
2022-08-07T18:13:09.803Z,100.00
2022-08-07T18:15:53.545Z,100.00
2022-08-07T18:21:03.232Z,100.00
2022-08-07T18:21:51.510Z,100.00
2022-08-07T18:24:33.389Z,100.00
2022-08-07T18:27:21.016Z,100.00
2022-08-07T18:30:36.741Z,100.00
2022-08-07T18:33:31.050Z,100.00
2022-08-07T18:36:34.994Z,100.00
2022-08-07T18:40:06.590Z,100.00
2022-08-07T18:42:36.498Z,100.00
2022-08-07T18:45:44.874Z,100.00
2022-08-07T18:50:05.665Z,100.00
2022-08-07T18:52:35.115Z,100.00
2022-08-07T18:54:49.835Z,100.00
2022-08-07T18:57:37.810Z,100.00
2022-08-07T19:00:34.430Z,100.00
2022-08-07T19:03:17.459Z,100.00
2022-08-07T19:06:03.355Z,100.00
2022-08-07T19:08:58.631Z,100.00
2022-08-07T19:12:04.050Z,100.00
2022-08-07T19:15:22.772Z,100.00
2022-08-07T19:18:07.747Z,100.00
2022-08-07T19:21:09.059Z,100.00
2022-08-07T19:23:58.308Z,100.00
2022-08-07T19:27:16.816Z,100.00
2022-08-07T19:31:04.152Z,100.00
2022-08-07T19:32:26.644Z,100.00
2022-08-07T19:35:06.085Z,100.00
2022-08-07T19:37:55.128Z,100.00
2022-08-07T19:40:31.135Z,100.00
2022-08-07T19:43:07.573Z,100.00
2022-08-07T19:46:07.353Z,100.00
2022-08-07T19:48:43.928Z,100.00
2022-08-07T19:51:20.100Z,100.00
2022-08-07T19:54:31.283Z,100.00
2022-08-07T19:58:02.455Z,100.00
2022-08-07T19:59:42.702Z,100.00
2022-08-07T20:02:19.638Z,100.00
2022-08-07T20:04:50.282Z,100.00
2022-08-07T20:07:45.920Z,100.00
2022-08-07T20:10:36.676Z,100.00
2022-08-07T20:13:06.404Z,100.00
2022-08-07T20:15:43.632Z,100.00
2022-08-07T20:18:14.739Z,100.00
2022-08-07T20:20:46.073Z,100.00
2022-08-07T20:23:40.599Z,100.00
2022-08-07T20:26:10.170Z,100.00
2022-08-07T20:28:39.912Z,100.00
2022-08-07T20:31:21.474Z,100.00
2022-08-07T20:33:56.608Z,100.00
2022-08-07T20:36:28.200Z,100.00
2022-08-07T20:39:11.636Z,100.00
2022-08-07T20:41:50.745Z,100.00
2022-08-07T20:44:20.119Z,100.00
2022-08-07T20:46:48.230Z,100.00
2022-08-07T20:50:00.773Z,100.00
2022-08-07T20:52:24.625Z,100.00
2022-08-07T20:55:12.225Z,100.00
2022-08-07T20:57:47.464Z,100.00
2022-08-07T21:00:44.450Z,100.00
2022-08-07T21:03:23.302Z,100.00
2022-08-07T21:05:56.363Z,100.00
2022-08-07T21:08:37.876Z,100.00
2022-08-07T21:11:12.440Z,100.00
2022-08-07T21:14:16.847Z,100.00
2022-08-07T21:18:01.928Z,100.00
2022-08-07T21:19:51.453Z,100.00
2022-08-07T21:22:30.901Z,100.00
2022-08-07T21:25:12.256Z,100.00
2022-08-07T21:27:55.486Z,100.00
2022-08-07T21:30:56.317Z,100.00
2022-08-07T21:33:41.744Z,100.00
2022-08-07T21:36:31.365Z,100.00
2022-08-07T21:39:46.757Z,100.00
2022-08-07T21:46:08.438Z,100.00
2022-08-07T21:48:41.177Z,100.00
2022-08-07T21:51:27.379Z,100.00
2022-08-07T21:54:30.331Z,100.00
2022-08-07T21:57:31.505Z,100.00
2022-08-07T22:00:22.141Z,100.00
2022-08-07T22:03:10.940Z,100.00
2022-08-07T22:05:57.805Z,100.00
2022-08-07T22:08:34.109Z,100.00
2022-08-07T22:11:04.621Z,100.00
2022-08-07T22:13:50.906Z,100.00
2022-08-07T22:16:45.002Z,100.00
2022-08-07T22:19:29.584Z,100.00
2022-08-07T22:22:27.511Z,100.00
2022-08-07T22:24:55.345Z,100.00
2022-08-07T22:28:20.215Z,100.00
2022-08-07T22:30:31.949Z,100.00
2022-08-07T22:33:09.625Z,100.00
2022-08-07T22:35:57.161Z,100.00
2022-08-07T22:38:38.318Z,100.00
2022-08-07T22:42:02.523Z,100.00
2022-08-07T22:44:18.502Z,100.00
2022-08-07T22:47:04.031Z,100.00
2022-08-07T22:49:55.106Z,100.00
2022-08-07T22:52:39.919Z,100.00
2022-08-07T22:55:22.526Z,100.00
2022-08-07T22:58:04.389Z,100.00
2022-08-07T23:01:01.960Z,100.00
2022-08-07T23:03:57.262Z,100.00
2022-08-07T23:06:58.806Z,100.00
2022-08-07T23:10:05.452Z,100.00
2022-08-07T23:12:41.688Z,100.00
2022-08-07T23:16:06.349Z,100.00
2022-08-07T23:18:43.364Z,100.00
2022-08-07T23:21:29.916Z,100.00
2022-08-07T23:24:19.109Z,100.00
2022-08-07T23:26:54.799Z,100.00
2022-08-07T23:29:44.070Z,100.00
2022-08-07T23:34:19.026Z,100.00
2022-08-07T23:35:46.456Z,100.00
2022-08-07T23:38:54.664Z,100.00
2022-08-07T23:42:05.071Z,100.00
2022-08-07T23:45:15.469Z,100.00
2022-08-07T23:48:26.529Z,100.00
2022-08-07T23:52:53.481Z,100.00
2022-08-07T23:54:04.813Z,100.00
2022-08-07T23:57:18.434Z,100.00
